createdAt,value
2023-07-27T00:01:51.862Z,82.62
2023-07-27T00:04:19.804Z,82.90
2023-07-27T00:06:47.908Z,82.91
2023-07-27T00:09:14.428Z,82.77
2023-07-27T00:11:41.823Z,82.90
2023-07-27T00:14:08.777Z,83.30
2023-07-27T00:16:35.568Z,83.12
2023-07-27T00:19:02.637Z,83.38
2023-07-27T00:21:29.592Z,83.26
2023-07-27T00:23:56.485Z,83.58
2023-07-27T00:26:23.430Z,83.65
2023-07-27T00:28:50.663Z,83.63
2023-07-27T00:31:17.145Z,83.44
2023-07-27T00:33:43.746Z,83.37
2023-07-27T00:36:10.394Z,83.32
2023-07-27T00:38:37.564Z,83.10
2023-07-27T00:41:05.481Z,83.29
2023-07-27T00:43:32.423Z,82.99
2023-07-27T00:45:59.193Z,83.09
2023-07-27T00:48:26.342Z,82.90
2023-07-27T00:50:55.013Z,82.79
2023-07-27T00:53:21.862Z,82.68
2023-07-27T00:55:48.934Z,82.75
2023-07-27T00:58:15.678Z,82.70
2023-07-27T01:05:00.193Z,82.47
2023-07-27T01:12:56.583Z,81.83
2023-07-27T01:17:06.726Z,82.17
2023-07-27T01:20:47.487Z,82.06
2023-07-27T01:23:46.669Z,82.08
2023-07-27T01:26:34.100Z,81.64
2023-07-27T01:29:14.914Z,81.53
2023-07-27T01:31:44.126Z,81.54
2023-07-27T01:34:28.090Z,81.39
2023-07-27T01:37:05.737Z,81.58
2023-07-27T01:39:36.884Z,81.54
2023-07-27T01:42:09.804Z,81.39
2023-07-27T01:44:37.253Z,81.33
2023-07-27T01:47:05.119Z,81.11
2023-07-27T01:49:33.679Z,81.24
2023-07-27T01:52:02.234Z,81.04
2023-07-27T01:54:29.020Z,81.24
2023-07-27T01:56:56.988Z,81.25
2023-07-27T01:59:25.296Z,81.41
2023-07-27T02:01:52.859Z,81.23
2023-07-27T02:04:19.619Z,81.42
2023-07-27T02:06:52.631Z,81.33
2023-07-27T02:09:19.471Z,81.39
2023-07-27T02:11:49.890Z,81.57
2023-07-27T02:14:35.047Z,81.42
2023-07-27T02:17:10.637Z,81.55
2023-07-27T02:19:41.603Z,81.17
2023-07-27T02:22:10.531Z,81.37
2023-07-27T02:24:37.779Z,81.17
2023-07-27T02:27:05.554Z,81.21
2023-07-27T02:29:31.884Z,81.29
2023-07-27T02:31:58.791Z,81.18
2023-07-27T02:34:25.205Z,81.01
2023-07-27T02:36:52.056Z,81.07
2023-07-27T02:39:19.287Z,81.12
2023-07-27T02:41:45.700Z,81.07
2023-07-27T02:44:12.114Z,81.07
2023-07-27T02:46:38.739Z,81.03
2023-07-27T02:49:05.201Z,80.93
2023-07-27T02:51:32.263Z,80.89
2023-07-27T02:53:58.801Z,80.92
2023-07-27T02:56:25.314Z,80.59
2023-07-27T02:58:51.804Z,80.67
2023-07-27T03:01:19.360Z,80.48
2023-07-27T03:03:45.852Z,80.40
2023-07-27T03:06:12.409Z,80.45
2023-07-27T03:08:39.346Z,80.20
2023-07-27T03:11:06.163Z,80.44
2023-07-27T03:13:33.797Z,80.46
2023-07-27T03:16:03.383Z,80.31
2023-07-27T03:18:30.102Z,80.39
2023-07-27T03:20:56.855Z,80.21
2023-07-27T03:23:23.474Z,80.15
2023-07-27T03:25:49.978Z,80.31
2023-07-27T03:28:16.652Z,80.10
2023-07-27T03:30:43.924Z,80.08
2023-07-27T03:33:10.408Z,80.04
2023-07-27T03:35:37.401Z,80.09
2023-07-27T03:38:04.448Z,80.03
2023-07-27T03:40:30.825Z,79.97
2023-07-27T03:42:57.442Z,79.93
2023-07-27T03:45:24.036Z,79.82
2023-07-27T03:47:50.848Z,79.97
2023-07-27T03:50:17.721Z,79.79
2023-07-27T03:52:44.082Z,79.68
2023-07-27T03:55:10.643Z,79.75
2023-07-27T03:57:38.013Z,79.84
2023-07-27T04:00:06.227Z,80.02
2023-07-27T04:02:32.925Z,79.99
2023-07-27T04:04:59.344Z,80.02
2023-07-27T04:07:25.771Z,80.02
2023-07-27T04:09:52.449Z,79.92
2023-07-27T04:12:19.322Z,80.12
2023-07-27T04:14:45.750Z,80.06
2023-07-27T04:17:12.235Z,80.17
2023-07-27T04:19:39.350Z,80.30
2023-07-27T04:22:05.976Z,80.25
2023-07-27T04:24:32.544Z,80.37
2023-07-27T04:26:58.771Z,80.25
2023-07-27T04:29:25.281Z,80.34
2023-07-27T04:31:52.053Z,80.55
2023-07-27T04:34:18.867Z,80.55
2023-07-27T04:36:48.425Z,80.55
2023-07-27T04:39:15.892Z,80.65
2023-07-27T04:41:42.326Z,80.58
2023-07-27T04:44:08.940Z,80.58
2023-07-27T04:46:35.793Z,80.85
2023-07-27T04:49:02.646Z,81.03
2023-07-27T04:51:29.616Z,80.94
2023-07-27T04:53:55.992Z,80.97
2023-07-27T04:56:22.814Z,81.19
2023-07-27T04:58:49.489Z,81.46
2023-07-27T05:01:15.959Z,81.42
2023-07-27T05:03:42.529Z,81.51
2023-07-27T05:06:08.958Z,81.66
2023-07-27T05:08:35.451Z,82.03
2023-07-27T05:11:07.141Z,82.54
2023-07-27T05:13:34.874Z,82.33
2023-07-27T05:16:01.975Z,82.67
2023-07-27T05:18:29.074Z,82.95
2023-07-27T05:20:56.560Z,82.77
2023-07-27T05:23:23.550Z,83.07
2023-07-27T05:28:41.842Z,83.24
2023-07-27T05:31:09.099Z,83.35
2023-07-27T05:33:35.550Z,83.35
2023-07-27T05:36:02.234Z,83.77
2023-07-27T05:38:31.374Z,83.85
2023-07-27T05:41:02.009Z,83.91
2023-07-27T05:43:28.884Z,84.14
2023-07-27T05:45:55.666Z,83.91
2023-07-27T05:48:31.534Z,84.24
2023-07-27T05:50:58.181Z,84.20
2023-07-27T05:53:24.465Z,84.42
2023-07-27T05:55:51.118Z,84.38
2023-07-27T05:58:24.794Z,84.00
2023-07-27T06:00:52.196Z,84.18
2023-07-27T06:03:19.771Z,84.28
2023-07-27T06:05:46.266Z,84.09
2023-07-27T06:08:12.998Z,83.81
2023-07-27T06:10:39.973Z,84.22
2023-07-27T06:13:07.226Z,84.05
2023-07-27T06:15:33.848Z,83.95
2023-07-27T06:18:00.606Z,84.15
2023-07-27T06:20:27.066Z,84.03
2023-07-27T06:22:53.313Z,83.69
2023-07-27T06:25:19.761Z,83.66
2023-07-27T06:27:46.097Z,83.16
2023-07-27T06:30:13.837Z,83.60
2023-07-27T06:32:40.554Z,83.66
2023-07-27T06:35:07.623Z,83.31
2023-07-27T06:37:34.385Z,83.58
2023-07-27T06:40:00.964Z,83.97
2023-07-27T06:42:27.339Z,83.61
2023-07-27T06:44:53.915Z,83.37
2023-07-27T06:47:20.392Z,83.41
2023-07-27T06:49:46.784Z,82.96
2023-07-27T06:52:13.753Z,82.89
2023-07-27T06:54:40.610Z,83.04
2023-07-27T06:57:10.677Z,82.92
2023-07-27T06:59:37.854Z,82.35
2023-07-27T07:02:04.934Z,81.65
2023-07-27T07:04:32.428Z,81.60
2023-07-27T07:06:58.980Z,81.50
2023-07-27T07:09:25.387Z,81.49
2023-07-27T07:11:51.983Z,81.43
2023-07-27T07:14:18.551Z,80.64
2023-07-27T07:16:45.080Z,80.13
2023-07-27T07:19:11.616Z,80.34
2023-07-27T07:21:37.831Z,79.63
2023-07-27T07:24:04.992Z,79.86
2023-07-27T07:26:32.486Z,79.91
2023-07-27T07:28:59.237Z,79.44
2023-07-27T07:31:25.711Z,78.46
2023-07-27T07:33:52.380Z,78.47
2023-07-27T07:36:19.913Z,77.55
2023-07-27T07:38:46.783Z,76.91
2023-07-27T07:41:14.558Z,76.76
2023-07-27T07:43:40.870Z,75.35
2023-07-27T07:46:14.087Z,76.13
2023-07-27T07:48:40.785Z,75.71
2023-07-27T07:51:11.731Z,75.20
2023-07-27T07:53:38.664Z,74.81
2023-07-27T07:56:05.529Z,74.89
2023-07-27T07:58:32.289Z,74.14
2023-07-27T08:01:01.380Z,73.92
2023-07-27T08:03:27.958Z,74.15
2023-07-27T08:05:54.468Z,73.24
2023-07-27T08:08:21.546Z,73.32
2023-07-27T08:10:48.471Z,72.68
2023-07-27T08:13:14.972Z,72.65
2023-07-27T08:15:51.159Z,72.17
2023-07-27T08:18:17.661Z,71.35
2023-07-27T08:20:44.010Z,71.22
2023-07-27T08:23:10.544Z,71.20
2023-07-27T08:25:38.285Z,70.55
2023-07-27T08:28:06.271Z,69.80
2023-07-27T08:30:35.611Z,69.78
2023-07-27T08:33:01.932Z,69.79
2023-07-27T08:35:28.475Z,68.79
2023-07-27T08:37:55.351Z,68.64
2023-07-27T08:40:22.027Z,68.59
2023-07-27T08:42:50.060Z,68.22
2023-07-27T08:45:21.788Z,68.98
2023-07-27T08:47:54.066Z,68.87
2023-07-27T08:50:21.014Z,67.30
2023-07-27T08:52:47.948Z,65.40
2023-07-27T08:55:14.548Z,65.51
2023-07-27T08:57:40.867Z,65.41
2023-07-27T09:00:10.822Z,66.11
2023-07-27T09:02:39.864Z,65.18
2023-07-27T09:05:07.374Z,66.04
2023-07-27T09:07:33.894Z,65.57
2023-07-27T09:10:06.196Z,64.58
2023-07-27T09:12:33.939Z,62.76
2023-07-27T09:15:00.664Z,63.06
2023-07-27T09:17:27.374Z,62.18
2023-07-27T09:19:54.094Z,61.22
2023-07-27T09:22:20.547Z,61.81
2023-07-27T09:24:47.259Z,61.39
2023-07-27T09:27:16.546Z,61.44
2023-07-27T09:29:43.481Z,61.43
2023-07-27T09:32:11.152Z,59.27
2023-07-27T09:34:37.473Z,57.31
2023-07-27T09:37:06.576Z,57.62
2023-07-27T09:39:33.931Z,58.31
2023-07-27T09:42:00.547Z,56.49
2023-07-27T09:44:26.970Z,56.18
2023-07-27T09:46:53.453Z,57.22
2023-07-27T09:49:20.723Z,57.39
2023-07-27T09:51:49.951Z,57.58
2023-07-27T09:54:18.721Z,56.98
2023-07-27T09:56:46.488Z,55.58
2023-07-27T09:59:14.933Z,56.42
2023-07-27T10:01:42.555Z,56.55
2023-07-27T10:04:09.083Z,56.20
2023-07-27T10:06:36.756Z,56.19
2023-07-27T10:09:18.866Z,56.04
2023-07-27T10:12:02.481Z,55.12
2023-07-27T10:15:13.319Z,55.33
2023-07-27T10:17:50.252Z,55.84
2023-07-27T10:20:31.407Z,54.52
2023-07-27T10:23:21.336Z,55.61
2023-07-27T10:25:53.910Z,55.84
2023-07-27T10:28:44.680Z,55.27
2023-07-27T10:31:29.953Z,55.26
2023-07-27T10:34:24.902Z,55.61
2023-07-27T10:37:00.378Z,55.77
2023-07-27T10:39:44.058Z,54.13
2023-07-27T10:42:15.358Z,53.39
2023-07-27T10:44:48.293Z,53.52
2023-07-27T10:47:25.803Z,54.03
2023-07-27T10:50:02.515Z,53.64
2023-07-27T10:52:33.519Z,53.92
2023-07-27T10:55:00.925Z,53.53
2023-07-27T10:57:29.349Z,54.38
2023-07-27T10:59:56.186Z,53.74
2023-07-27T11:02:31.251Z,53.47
2023-07-27T11:05:04.404Z,52.09
2023-07-27T11:07:33.898Z,52.44
2023-07-27T11:10:07.615Z,52.34
2023-07-27T11:12:50.568Z,51.91
2023-07-27T11:15:36.199Z,52.80
2023-07-27T11:18:03.656Z,52.22
2023-07-27T11:20:30.245Z,52.09
2023-07-27T11:22:57.984Z,52.49
2023-07-27T11:25:26.581Z,51.66
2023-07-27T11:27:54.698Z,52.16
2023-07-27T11:30:22.758Z,52.34
2023-07-27T11:33:03.395Z,51.77
2023-07-27T11:35:30.874Z,52.34
2023-07-27T11:37:58.464Z,53.33
2023-07-27T11:40:32.555Z,52.39
2023-07-27T11:43:04.031Z,52.26
2023-07-27T11:45:32.415Z,51.83
2023-07-27T11:47:59.856Z,51.83
2023-07-27T11:50:30.072Z,51.98
2023-07-27T11:53:03.939Z,52.21
2023-07-27T11:55:36.813Z,52.55
2023-07-27T11:58:11.790Z,52.43
2023-07-27T12:00:38.604Z,53.59
2023-07-27T12:03:16.310Z,53.71
2023-07-27T12:06:08.276Z,53.95
2023-07-27T12:11:40.875Z,53.17
2023-07-27T12:17:01.225Z,51.95
2023-07-27T12:21:44.106Z,51.70
2023-07-27T12:34:11.896Z,53.63
2023-07-27T12:36:39.410Z,53.96
2023-07-27T12:39:06.066Z,53.58
2023-07-27T12:41:33.154Z,53.84
2023-07-27T12:44:01.620Z,54.09
2023-07-27T12:46:28.378Z,54.08
2023-07-27T12:48:55.013Z,53.71
2023-07-27T12:51:25.389Z,53.00
2023-07-27T12:53:51.919Z,51.68
2023-07-27T12:56:19.071Z,52.10
2023-07-27T12:58:46.476Z,52.33
2023-07-27T13:01:13.196Z,52.89
2023-07-27T13:03:40.786Z,52.53
2023-07-27T13:06:08.091Z,52.41
2023-07-27T13:08:34.818Z,52.41
2023-07-27T13:11:01.345Z,53.11
2023-07-27T13:13:28.401Z,53.25
2023-07-27T13:15:55.153Z,53.63
2023-07-27T13:18:21.611Z,53.23
2023-07-27T13:20:49.304Z,52.58
2023-07-27T13:23:16.338Z,52.30
2023-07-27T13:25:42.884Z,52.59
2023-07-27T13:28:10.148Z,53.12
2023-07-27T13:30:37.087Z,52.82
2023-07-27T13:33:03.778Z,52.88
2023-07-27T13:35:30.954Z,53.71
2023-07-27T13:37:57.649Z,53.52
2023-07-27T13:40:24.192Z,53.67
2023-07-27T13:42:51.127Z,54.50
2023-07-27T13:45:17.594Z,53.76
2023-07-27T13:47:53.865Z,53.79
2023-07-27T13:50:29.330Z,53.60
2023-07-27T13:52:55.823Z,54.78
2023-07-27T13:55:24.905Z,54.71
2023-07-27T13:57:51.561Z,53.57
2023-07-27T14:00:18.647Z,53.04
2023-07-27T14:02:45.720Z,50.92
2023-07-27T14:05:14.552Z,50.92
2023-07-27T14:07:41.089Z,50.85
2023-07-27T14:10:09.285Z,50.25
2023-07-27T14:12:36.335Z,49.26
2023-07-27T14:15:03.113Z,48.92
2023-07-27T14:17:29.596Z,48.46
2023-07-27T14:19:58.426Z,47.76
2023-07-27T14:22:25.381Z,47.58
2023-07-27T14:24:52.963Z,47.60
2023-07-27T14:27:21.929Z,47.25
2023-07-27T14:29:48.667Z,46.63
2023-07-27T14:32:14.975Z,46.81
2023-07-27T14:34:41.959Z,47.05
2023-07-27T14:37:08.523Z,45.77
2023-07-27T14:42:14.202Z,45.91
2023-07-27T14:44:40.592Z,46.61
2023-07-27T14:47:09.321Z,46.24
2023-07-27T14:52:05.676Z,47.33
2023-07-27T14:54:32.621Z,48.06
2023-07-27T14:57:02.390Z,48.42
2023-07-27T14:59:29.863Z,49.15
2023-07-27T15:01:57.743Z,49.49
2023-07-27T15:06:54.373Z,49.35
2023-07-27T15:09:31.085Z,49.81
2023-07-27T15:11:58.092Z,48.64
2023-07-27T15:14:24.686Z,48.34
2023-07-27T15:16:51.234Z,48.65
2023-07-27T15:19:18.079Z,48.84
2023-07-27T15:21:44.751Z,48.72
2023-07-27T15:24:12.823Z,49.03
2023-07-27T15:26:39.858Z,49.57
2023-07-27T15:29:07.237Z,49.90
2023-07-27T15:31:34.018Z,50.41
2023-07-27T15:34:00.780Z,48.63
2023-07-27T15:36:29.328Z,49.19
2023-07-27T15:38:56.229Z,48.65
2023-07-27T15:41:22.770Z,48.38
2023-07-27T15:43:49.208Z,48.43
2023-07-27T15:46:16.271Z,48.18
2023-07-27T15:48:43.578Z,48.02
2023-07-27T15:51:10.219Z,48.73
2023-07-27T15:53:39.323Z,49.26
2023-07-27T15:56:06.455Z,49.30
2023-07-27T15:58:33.014Z,49.44
2023-07-27T16:01:01.433Z,49.83
2023-07-27T16:03:28.833Z,49.74
2023-07-27T16:05:55.508Z,48.72
2023-07-27T16:08:23.831Z,49.50
2023-07-27T16:10:50.786Z,49.09
2023-07-27T16:13:17.329Z,49.67
2023-07-27T16:15:44.479Z,49.96
2023-07-27T16:18:11.167Z,49.72
2023-07-27T16:20:44.214Z,49.56
2023-07-27T16:23:12.985Z,49.35
2023-07-27T16:25:39.902Z,49.41
2023-07-27T16:28:06.586Z,49.78
2023-07-27T16:30:35.227Z,50.51
2023-07-27T16:33:03.732Z,50.09
2023-07-27T16:35:32.369Z,51.33
2023-07-27T16:37:59.574Z,51.58
2023-07-27T16:40:26.473Z,51.44
2023-07-27T16:42:53.041Z,52.62
2023-07-27T16:45:23.290Z,52.87
2023-07-27T16:47:49.897Z,53.23
2023-07-27T16:50:16.443Z,54.09
2023-07-27T16:52:44.441Z,54.36
2023-07-27T16:55:10.907Z,54.53
2023-07-27T16:57:37.287Z,55.00
2023-07-27T17:00:04.540Z,55.96
2023-07-27T17:02:32.077Z,56.03
2023-07-27T17:04:58.811Z,56.22
2023-07-27T17:07:26.736Z,56.33
2023-07-27T17:09:53.370Z,56.84
2023-07-27T17:12:19.690Z,56.72
2023-07-27T17:14:47.395Z,57.45
2023-07-27T17:17:14.750Z,58.18
2023-07-27T17:19:41.636Z,57.84
2023-07-27T17:22:08.390Z,58.49
2023-07-27T17:24:35.201Z,59.09
2023-07-27T17:27:01.962Z,59.57
2023-07-27T17:29:28.801Z,59.84
2023-07-27T17:31:55.183Z,60.26
2023-07-27T17:34:24.173Z,60.54
2023-07-27T17:36:50.996Z,61.02
2023-07-27T17:39:17.621Z,61.40
2023-07-27T17:41:44.261Z,61.79
2023-07-27T17:44:11.136Z,62.06
2023-07-27T17:46:37.782Z,62.42
2023-07-27T17:49:04.846Z,62.64
2023-07-27T17:51:32.920Z,62.83
2023-07-27T17:53:59.851Z,62.98
2023-07-27T17:56:26.358Z,63.21
2023-07-27T17:58:53.883Z,63.48
2023-07-27T18:01:20.801Z,63.51
2023-07-27T18:03:50.801Z,63.62
2023-07-27T18:06:17.513Z,64.16
2023-07-27T18:08:44.180Z,64.33
2023-07-27T18:11:14.590Z,64.41
2023-07-27T18:13:42.737Z,64.57
2023-07-27T18:16:11.702Z,65.00
2023-07-27T18:18:39.239Z,65.32
2023-07-27T18:21:14.495Z,65.46
2023-07-27T18:23:42.586Z,65.63
2023-07-27T18:26:17.301Z,65.95
2023-07-27T18:28:44.113Z,66.03
2023-07-27T18:31:10.785Z,66.10
2023-07-27T18:33:38.350Z,66.35
2023-07-27T18:36:17.153Z,66.55
2023-07-27T18:38:46.039Z,66.69
2023-07-27T18:41:17.471Z,66.64
2023-07-27T18:43:44.287Z,66.72
2023-07-27T18:46:16.398Z,66.86
2023-07-27T18:48:43.066Z,67.04
2023-07-27T18:51:09.707Z,67.17
2023-07-27T18:53:37.096Z,67.44
2023-07-27T18:56:04.128Z,67.69
2023-07-27T18:58:30.916Z,67.74
2023-07-27T19:00:58.511Z,67.74
2023-07-27T19:03:25.771Z,67.77
2023-07-27T19:05:52.399Z,67.95
2023-07-27T19:08:21.795Z,68.04
2023-07-27T19:11:00.904Z,68.07
2023-07-27T19:13:27.721Z,67.91
2023-07-27T19:15:54.412Z,68.09
2023-07-27T19:18:21.048Z,68.17
2023-07-27T19:20:48.473Z,68.22
2023-07-27T19:23:15.018Z,68.42
2023-07-27T19:25:43.431Z,68.41
2023-07-27T19:28:11.778Z,68.36
2023-07-27T19:30:39.582Z,68.44
2023-07-27T19:33:10.581Z,68.60
2023-07-27T19:35:38.587Z,68.80
2023-07-27T19:38:06.454Z,69.01
2023-07-27T19:40:33.329Z,69.05
2023-07-27T19:43:00.277Z,69.14
2023-07-27T19:45:27.121Z,69.36
2023-07-27T19:47:53.955Z,69.35
2023-07-27T19:50:21.206Z,69.61
2023-07-27T19:52:47.862Z,69.55
2023-07-27T19:55:14.298Z,69.74
2023-07-27T19:57:41.196Z,69.95
2023-07-27T20:00:10.609Z,70.26
2023-07-27T20:02:37.348Z,70.42
2023-07-27T20:05:06.907Z,70.51
2023-07-27T20:07:33.260Z,70.71
2023-07-27T20:10:00.878Z,70.60
2023-07-27T20:12:29.516Z,70.79
2023-07-27T20:14:56.179Z,70.98
2023-07-27T20:17:23.352Z,71.09
2023-07-27T20:19:50.505Z,71.20
2023-07-27T20:22:19.853Z,71.39
2023-07-27T20:24:50.504Z,71.57
2023-07-27T20:27:17.324Z,71.47
2023-07-27T20:29:43.831Z,71.48
2023-07-27T20:32:10.452Z,71.58
2023-07-27T20:34:37.287Z,71.49
2023-07-27T20:37:04.074Z,71.57
2023-07-27T20:39:30.899Z,71.79
2023-07-27T20:42:00.188Z,71.70
2023-07-27T20:44:27.088Z,71.65
2023-07-27T20:46:53.803Z,71.65
2023-07-27T20:49:20.403Z,71.67
2023-07-27T20:51:48.062Z,71.46
2023-07-27T20:54:14.852Z,71.42
2023-07-27T20:56:43.990Z,71.30
2023-07-27T20:59:11.175Z,71.35
2023-07-27T21:01:38.151Z,71.41
2023-07-27T21:04:07.014Z,71.27
2023-07-27T21:06:35.957Z,71.25
2023-07-27T21:09:03.125Z,71.79
2023-07-27T21:11:30.458Z,71.86
2023-07-27T21:13:57.218Z,72.16
2023-07-27T21:16:24.251Z,72.45
2023-07-27T21:18:54.209Z,72.82
2023-07-27T21:21:21.233Z,73.15
2023-07-27T21:23:50.776Z,73.32
2023-07-27T21:26:18.192Z,73.44
2023-07-27T21:28:45.582Z,73.64
2023-07-27T21:31:13.038Z,73.70
2023-07-27T21:33:40.255Z,73.92
2023-07-27T21:36:07.555Z,73.87
2023-07-27T21:38:34.740Z,74.08
2023-07-27T21:41:02.446Z,73.82
2023-07-27T21:43:29.595Z,73.97
2023-07-27T21:45:57.201Z,74.08
2023-07-27T21:48:24.646Z,74.32
2023-07-27T21:50:52.716Z,74.47
2023-07-27T21:53:19.702Z,74.44
2023-07-27T21:55:47.758Z,74.13
2023-07-27T21:58:17.274Z,74.09
2023-07-27T22:00:43.667Z,74.36
2023-07-27T22:03:12.456Z,74.18
2023-07-27T22:05:39.248Z,74.59
2023-07-27T22:08:05.844Z,74.30
2023-07-27T22:10:33.611Z,74.20
2023-07-27T22:13:00.107Z,73.59
2023-07-27T22:15:26.444Z,73.91
2023-07-27T22:17:54.246Z,73.88
2023-07-27T22:20:20.961Z,74.05
2023-07-27T22:22:47.537Z,74.02
2023-07-27T22:25:15.015Z,73.96
2023-07-27T22:27:41.978Z,74.52
2023-07-27T22:30:08.888Z,74.34
2023-07-27T22:32:36.276Z,74.34
2023-07-27T22:35:03.556Z,74.16
2023-07-27T22:37:30.106Z,74.27
2023-07-27T22:39:57.331Z,74.44
2023-07-27T22:42:26.782Z,74.45
2023-07-27T22:44:53.234Z,74.22
2023-07-27T22:47:23.132Z,74.27
2023-07-27T22:49:50.403Z,74.54
2023-07-27T22:52:16.947Z,74.46
2023-07-27T22:54:44.348Z,74.50
2023-07-27T22:57:11.316Z,74.75
2023-07-27T22:59:37.796Z,74.57
2023-07-27T23:02:04.710Z,74.24
2023-07-27T23:04:31.482Z,73.97
2023-07-27T23:06:58.074Z,73.72
2023-07-27T23:09:25.424Z,73.43
2023-07-27T23:11:51.785Z,73.44
2023-07-27T23:14:18.249Z,73.25
2023-07-27T23:16:44.900Z,73.45
2023-07-27T23:19:11.429Z,73.80
2023-07-27T23:21:37.849Z,74.01
2023-07-27T23:24:05.047Z,73.89
2023-07-27T23:26:31.416Z,73.81
2023-07-27T23:28:58.948Z,73.69
2023-07-27T23:31:26.144Z,73.56
2023-07-27T23:33:52.723Z,73.70
2023-07-27T23:36:20.105Z,73.80
2023-07-27T23:38:47.630Z,73.58
2023-07-27T23:41:17.293Z,73.92
2023-07-27T23:43:43.954Z,73.90
2023-07-27T23:46:11.046Z,73.98
2023-07-27T23:48:37.541Z,74.04
2023-07-27T23:51:04.212Z,74.30
2023-07-27T23:53:31.399Z,74.23
2023-07-27T23:56:00.056Z,74.31
2023-07-27T23:58:26.421Z,74.33
